sensor_id;sensor_type;location;lat;lon;timestamp;P1;durP1;ratioP1;P2;durP2;ratioP2
77821;SDS011;67012;53.712;10.728;2024-03-07T07:17:45;15.80;;;7.88;;
77821;SDS011;67012;53.712;10.728;2024-03-07T07:20:11;13.95;;;7.45;;
77821;SDS011;67012;53.712;10.728;2024-03-07T07:22:39;15.35;;;8.07;;
77821;SDS011;67012;53.712;10.728;2024-03-07T07:25:05;14.93;;;7.63;;
77821;SDS011;67012;53.712;10.728;2024-03-07T07:27:31;13.13;;;8.18;;
77821;SDS011;67012;53.712;10.728;2024-03-07T07:29:57;16.77;;;8.40;;
77821;SDS011;67012;53.712;10.728;2024-03-07T07:32:22;12.63;;;7.97;;
77821;SDS011;67012;53.712;10.728;2024-03-07T07:34:50;16.37;;;9.23;;
77821;SDS011;67012;53.712;10.728;2024-03-07T07:37:15;18.20;;;8.27;;
77821;SDS011;67012;53.712;10.728;2024-03-07T07:39:41;20.80;;;9.60;;
77821;SDS011;67012;53.712;10.728;2024-03-07T07:42:06;17.17;;;9.03;;
77821;SDS011;67012;53.712;10.728;2024-03-07T07:44:34;16.05;;;9.45;;
77821;SDS011;67012;53.712;10.728;2024-03-07T07:47:00;15.83;;;8.67;;
77821;SDS011;67012;53.712;10.728;2024-03-07T07:49:25;14.53;;;8.50;;
77821;SDS011;67012;53.712;10.728;2024-03-07T07:51:50;19.53;;;10.60;;
77821;SDS011;67012;53.712;10.728;2024-03-07T07:54:15;17.80;;;9.47;;
77821;SDS011;67012;53.712;10.728;2024-03-07T07:56:40;16.77;;;10.47;;
77821;SDS011;67012;53.712;10.728;2024-03-07T07:59:06;17.93;;;9.10;;
77821;SDS011;67012;53.712;10.728;2024-03-07T08:01:34;18.30;;;9.27;;
77821;SDS011;67012;53.712;10.728;2024-03-07T08:04:00;16.95;;;8.70;;
77821;SDS011;67012;53.712;10.728;2024-03-07T08:06:25;17.50;;;9.60;;
77821;SDS011;67012;53.712;10.728;2024-03-07T08:08:50;20.03;;;9.90;;
77821;SDS011;67012;53.712;10.728;2024-03-07T08:11:15;17.37;;;9.23;;
77821;SDS011;67012;53.712;10.728;2024-03-07T08:13:40;19.40;;;10.07;;
77821;SDS011;67012;53.712;10.728;2024-03-07T08:16:06;20.65;;;9.85;;
77821;SDS011;67012;53.712;10.728;2024-03-07T08:18:32;19.42;;;9.65;;
77821;SDS011;67012;53.712;10.728;2024-03-07T08:20:57;17.27;;;9.90;;
77821;SDS011;67012;53.712;10.728;2024-03-07T08:23:22;20.95;;;10.05;;
77821;SDS011;67012;53.712;10.728;2024-03-07T08:25:50;18.20;;;9.27;;
77821;SDS011;67012;53.712;10.728;2024-03-07T08:28:15;19.20;;;10.47;;
77821;SDS011;67012;53.712;10.728;2024-03-07T08:30:41;21.02;;;10.93;;
77821;SDS011;67012;53.712;10.728;2024-03-07T08:33:06;18.98;;;9.65;;
77821;SDS011;67012;53.712;10.728;2024-03-07T08:35:32;17.80;;;10.32;;
77821;SDS011;67012;53.712;10.728;2024-03-07T08:37:58;18.52;;;9.52;;
77821;SDS011;67012;53.712;10.728;2024-03-07T08:40:24;17.53;;;9.20;;
77821;SDS011;67012;53.712;10.728;2024-03-07T08:42:50;17.45;;;9.57;;
77821;SDS011;67012;53.712;10.728;2024-03-07T08:45:16;17.08;;;9.75;;
77821;SDS011;67012;53.712;10.728;2024-03-07T08:47:45;22.20;;;10.43;;
77821;SDS011;67012;53.712;10.728;2024-03-07T08:50:11;20.23;;;10.02;;
77821;SDS011;67012;53.712;10.728;2024-03-07T08:52:38;16.67;;;9.93;;
77821;SDS011;67012;53.712;10.728;2024-03-07T08:55:07;21.80;;;10.57;;
77821;SDS011;67012;53.712;10.728;2024-03-07T08:57:42;16.52;;;9.35;;
77821;SDS011;67012;53.712;10.728;2024-03-07T09:00:09;18.65;;;9.50;;
77821;SDS011;67012;53.712;10.728;2024-03-07T09:02:35;19.33;;;9.98;;
77821;SDS011;67012;53.712;10.728;2024-03-07T09:05:01;17.90;;;9.73;;
77821;SDS011;67012;53.712;10.728;2024-03-07T09:07:26;17.88;;;8.95;;
77821;SDS011;67012;53.712;10.728;2024-03-07T09:09:54;20.38;;;9.98;;
77821;SDS011;67012;53.712;10.728;2024-03-07T09:12:19;17.87;;;8.77;;
77821;SDS011;67012;53.712;10.728;2024-03-07T09:14:45;17.75;;;9.93;;
77821;SDS011;67012;53.712;10.728;2024-03-07T09:17:10;19.60;;;9.90;;
77821;SDS011;67012;53.712;10.728;2024-03-07T09:19:35;19.90;;;10.70;;
77821;SDS011;67012;53.712;10.728;2024-03-07T09:22:00;17.40;;;10.30;;
77821;SDS011;67012;53.712;10.728;2024-03-07T09:24:28;20.88;;;10.30;;
77821;SDS011;67012;53.712;10.728;2024-03-07T09:26:53;20.77;;;10.90;;
77821;SDS011;67012;53.712;10.728;2024-03-07T09:29:21;23.30;;;11.52;;
77821;SDS011;67012;53.712;10.728;2024-03-07T09:31:48;23.17;;;11.50;;
77821;SDS011;67012;53.712;10.728;2024-03-07T09:34:14;20.05;;;10.40;;
77821;SDS011;67012;53.712;10.728;2024-03-07T09:36:39;22.25;;;11.32;;
77821;SDS011;67012;53.712;10.728;2024-03-07T09:39:08;19.25;;;10.18;;
77821;SDS011;67012;53.712;10.728;2024-03-07T09:41:34;21.80;;;11.32;;
77821;SDS011;67012;53.712;10.728;2024-03-07T09:43:59;21.57;;;11.37;;
77821;SDS011;67012;53.712;10.728;2024-03-07T09:46:25;21.38;;;10.90;;
77821;SDS011;67012;53.712;10.728;2024-03-07T09:48:50;20.73;;;10.30;;
77821;SDS011;67012;53.712;10.728;2024-03-07T09:51:19;22.38;;;10.70;;
77821;SDS011;67012;53.712;10.728;2024-03-07T09:53:45;18.95;;;10.30;;
77821;SDS011;67012;53.712;10.728;2024-03-07T09:56:11;20.75;;;10.93;;
77821;SDS011;67012;53.712;10.728;2024-03-07T09:58:38;21.90;;;11.40;;
77821;SDS011;67012;53.712;10.728;2024-03-07T10:01:04;21.52;;;11.13;;
77821;SDS011;67012;53.712;10.728;2024-03-07T10:03:31;21.58;;;11.55;;
77821;SDS011;67012;53.712;10.728;2024-03-07T10:05:57;22.52;;;11.25;;
77821;SDS011;67012;53.712;10.728;2024-03-07T10:08:22;22.38;;;11.35;;
77821;SDS011;67012;53.712;10.728;2024-03-07T10:10:49;23.58;;;11.15;;
77821;SDS011;67012;53.712;10.728;2024-03-07T10:13:14;20.92;;;10.98;;
77821;SDS011;67012;53.712;10.728;2024-03-07T10:15:40;20.60;;;11.30;;
77821;SDS011;67012;53.712;10.728;2024-03-07T10:18:08;23.17;;;12.40;;
77821;SDS011;67012;53.712;10.728;2024-03-07T10:20:34;21.02;;;10.95;;
77821;SDS011;67012;53.712;10.728;2024-03-07T10:23:01;23.70;;;12.00;;
77821;SDS011;67012;53.712;10.728;2024-03-07T10:25:27;24.20;;;12.15;;
77821;SDS011;67012;53.712;10.728;2024-03-07T10:27:52;19.75;;;10.02;;
77821;SDS011;67012;53.712;10.728;2024-03-07T10:30:19;25.35;;;11.82;;
77821;SDS011;67012;53.712;10.728;2024-03-07T10:32:48;28.25;;;13.07;;
77821;SDS011;67012;53.712;10.728;2024-03-07T10:37:41;23.67;;;12.25;;
77821;SDS011;67012;53.712;10.728;2024-03-07T10:40:06;24.13;;;13.90;;
77821;SDS011;67012;53.712;10.728;2024-03-07T10:42:42;28.73;;;13.70;;
77821;SDS011;67012;53.712;10.728;2024-03-07T10:45:10;29.73;;;14.20;;
77821;SDS011;67012;53.712;10.728;2024-03-07T10:47:36;28.88;;;13.90;;
77821;SDS011;67012;53.712;10.728;2024-03-07T10:50:24;32.30;;;14.60;;
77821;SDS011;67012;53.712;10.728;2024-03-07T10:52:59;32.08;;;15.32;;
77821;SDS011;67012;53.712;10.728;2024-03-07T10:57:57;31.80;;;14.50;;
77821;SDS011;67012;53.712;10.728;2024-03-07T11:00:26;32.30;;;15.52;;
77821;SDS011;67012;53.712;10.728;2024-03-07T11:02:55;30.80;;;14.10;;
77821;SDS011;67012;53.712;10.728;2024-03-07T11:05:20;28.55;;;15.10;;
77821;SDS011;67012;53.712;10.728;2024-03-07T11:10:14;36.53;;;16.17;;
77821;SDS011;67012;53.712;10.728;2024-03-07T11:12:42;35.90;;;15.90;;
77821;SDS011;67012;53.712;10.728;2024-03-07T11:15:09;28.10;;;14.70;;
77821;SDS011;67012;53.712;10.728;2024-03-07T11:17:39;30.10;;;16.35;;
77821;SDS011;67012;53.712;10.728;2024-03-07T11:20:18;34.03;;;17.15;;
77821;SDS011;67012;53.712;10.728;2024-03-07T11:22:44;31.77;;;16.33;;
77821;SDS011;67012;53.712;10.728;2024-03-07T11:25:10;31.27;;;15.70;;
77821;SDS011;67012;53.712;10.728;2024-03-07T11:27:38;33.30;;;16.33;;
77821;SDS011;67012;53.712;10.728;2024-03-07T11:30:07;35.92;;;16.58;;
77821;SDS011;67012;53.712;10.728;2024-03-07T11:32:37;31.45;;;15.95;;
77821;SDS011;67012;53.712;10.728;2024-03-07T11:35:05;36.10;;;17.38;;
77821;SDS011;67012;53.712;10.728;2024-03-07T11:37:42;32.20;;;17.90;;
77821;SDS011;67012;53.712;10.728;2024-03-07T11:40:42;35.65;;;17.75;;
77821;SDS011;67012;53.712;10.728;2024-03-07T11:43:00;34.65;;;17.45;;
77821;SDS011;67012;53.712;10.728;2024-03-07T11:45:25;33.13;;;17.27;;
77821;SDS011;67012;53.712;10.728;2024-03-07T11:47:51;35.13;;;17.85;;
77821;SDS011;67012;53.712;10.728;2024-03-07T11:50:32;36.72;;;17.50;;
77821;SDS011;67012;53.712;10.728;2024-03-07T11:53:00;34.78;;;17.30;;
77821;SDS011;67012;53.712;10.728;2024-03-07T11:55:25;36.55;;;17.55;;
77821;SDS011;67012;53.712;10.728;2024-03-07T11:57:50;32.80;;;18.63;;
77821;SDS011;67012;53.712;10.728;2024-03-07T12:00:16;33.75;;;18.30;;
77821;SDS011;67012;53.712;10.728;2024-03-07T12:02:42;34.67;;;17.15;;
77821;SDS011;67012;53.712;10.728;2024-03-07T12:05:08;33.28;;;17.13;;
77821;SDS011;67012;53.712;10.728;2024-03-07T12:07:33;30.75;;;15.65;;
77821;SDS011;67012;53.712;10.728;2024-03-07T12:09:59;30.60;;;15.93;;
77821;SDS011;67012;53.712;10.728;2024-03-07T12:12:26;31.77;;;13.77;;
77821;SDS011;67012;53.712;10.728;2024-03-07T12:14:54;28.52;;;14.95;;
77821;SDS011;67012;53.712;10.728;2024-03-07T12:17:20;22.48;;;13.02;;
77821;SDS011;67012;53.712;10.728;2024-03-07T12:19:46;25.42;;;13.98;;
77821;SDS011;67012;53.712;10.728;2024-03-07T12:22:12;25.70;;;12.70;;
77821;SDS011;67012;53.712;10.728;2024-03-07T12:24:40;26.77;;;13.18;;
77821;SDS011;67012;53.712;10.728;2024-03-07T12:29:31;29.93;;;13.40;;
77821;SDS011;67012;53.712;10.728;2024-03-07T12:31:58;25.17;;;13.45;;
77821;SDS011;67012;53.712;10.728;2024-03-07T12:34:24;28.92;;;13.57;;
77821;SDS011;67012;53.712;10.728;2024-03-07T12:36:51;26.40;;;14.68;;
77821;SDS011;67012;53.712;10.728;2024-03-07T12:39:21;25.55;;;13.10;;
77821;SDS011;67012;53.712;10.728;2024-03-07T12:41:50;24.70;;;14.13;;
77821;SDS011;67012;53.712;10.728;2024-03-07T12:44:23;25.23;;;13.13;;
77821;SDS011;67012;53.712;10.728;2024-03-07T12:46:50;24.30;;;13.10;;
77821;SDS011;67012;53.712;10.728;2024-03-07T12:49:20;24.50;;;11.75;;
77821;SDS011;67012;53.712;10.728;2024-03-07T12:51:45;21.23;;;12.73;;
77821;SDS011;67012;53.712;10.728;2024-03-07T12:54:10;23.03;;;12.10;;
77821;SDS011;67012;53.712;10.728;2024-03-07T12:56:36;19.67;;;11.52;;
77821;SDS011;67012;53.712;10.728;2024-03-07T12:59:02;26.45;;;13.77;;
77821;SDS011;67012;53.712;10.728;2024-03-07T13:01:27;24.23;;;11.88;;
77821;SDS011;67012;53.712;10.728;2024-03-07T13:03:52;22.97;;;12.83;;
77821;SDS011;67012;53.712;10.728;2024-03-07T13:06:18;20.85;;;10.88;;
77821;SDS011;67012;53.712;10.728;2024-03-07T13:08:54;20.23;;;11.05;;
77821;SDS011;67012;53.712;10.728;2024-03-07T13:11:21;22.70;;;11.60;;
77821;SDS011;67012;53.712;10.728;2024-03-07T13:13:46;24.90;;;12.20;;
77821;SDS011;67012;53.712;10.728;2024-03-07T13:16:12;18.05;;;9.82;;
77821;SDS011;67012;53.712;10.728;2024-03-07T13:18:37;18.53;;;10.70;;
77821;SDS011;67012;53.712;10.728;2024-03-07T13:21:02;19.63;;;10.57;;
77821;SDS011;67012;53.712;10.728;2024-03-07T13:23:31;19.38;;;9.63;;
77821;SDS011;67012;53.712;10.728;2024-03-07T13:25:57;18.33;;;10.25;;
77821;SDS011;67012;53.712;10.728;2024-03-07T13:28:22;18.37;;;9.63;;
77821;SDS011;67012;53.712;10.728;2024-03-07T13:30:50;16.40;;;9.80;;
77821;SDS011;67012;53.712;10.728;2024-03-07T13:33:19;18.45;;;9.52;;
77821;SDS011;67012;53.712;10.728;2024-03-07T13:35:44;18.83;;;10.60;;
77821;SDS011;67012;53.712;10.728;2024-03-07T13:38:09;19.07;;;9.10;;
77821;SDS011;67012;53.712;10.728;2024-03-07T13:40:35;20.23;;;10.27;;
77821;SDS011;67012;53.712;10.728;2024-03-07T13:43:03;17.48;;;9.55;;
77821;SDS011;67012;53.712;10.728;2024-03-07T13:45:32;20.85;;;10.50;;
77821;SDS011;67012;53.712;10.728;2024-03-07T13:48:01;18.98;;;9.88;;
77821;SDS011;67012;53.712;10.728;2024-03-07T13:50:30;22.23;;;10.90;;
77821;SDS011;67012;53.712;10.728;2024-03-07T13:52:55;19.15;;;10.18;;
77821;SDS011;67012;53.712;10.728;2024-03-07T14:06:21;20.90;;;9.98;;
77821;SDS011;67012;53.712;10.728;2024-03-07T14:09:56;21.60;;;11.10;;
77821;SDS011;67012;53.712;10.728;2024-03-07T14:29:54;23.80;;;12.18;;
77821;SDS011;67012;53.712;10.728;2024-03-07T14:32:21;26.75;;;13.50;;
77821;SDS011;67012;53.712;10.728;2024-03-07T14:34:55;28.60;;;14.45;;
77821;SDS011;67012;53.712;10.728;2024-03-07T14:37:25;29.73;;;14.15;;
77821;SDS011;67012;53.712;10.728;2024-03-07T14:39:56;32.28;;;15.00;;
77821;SDS011;67012;53.712;10.728;2024-03-07T14:42:27;28.08;;;14.60;;
77821;SDS011;67012;53.712;10.728;2024-03-07T14:44:52;33.27;;;14.37;;
77821;SDS011;67012;53.712;10.728;2024-03-07T14:47:19;30.97;;;13.77;;
77821;SDS011;67012;53.712;10.728;2024-03-07T14:49:44;28.17;;;14.05;;
77821;SDS011;67012;53.712;10.728;2024-03-07T14:52:10;31.23;;;15.50;;
77821;SDS011;67012;53.712;10.728;2024-03-07T14:54:38;29.88;;;14.93;;
77821;SDS011;67012;53.712;10.728;2024-03-07T14:57:04;29.63;;;15.33;;
77821;SDS011;67012;53.712;10.728;2024-03-07T14:59:32;39.25;;;19.65;;
77821;SDS011;67012;53.712;10.728;2024-03-07T15:01:57;29.83;;;16.83;;
77821;SDS011;67012;53.712;10.728;2024-03-07T15:04:24;26.95;;;13.82;;
77821;SDS011;67012;53.712;10.728;2024-03-07T15:06:49;29.67;;;14.38;;
77821;SDS011;67012;53.712;10.728;2024-03-07T15:09:17;23.63;;;13.20;;
77821;SDS011;67012;53.712;10.728;2024-03-07T15:11:44;22.42;;;12.30;;
77821;SDS011;67012;53.712;10.728;2024-03-07T15:14:09;19.00;;;10.85;;
77821;SDS011;67012;53.712;10.728;2024-03-07T15:16:35;21.10;;;11.13;;
77821;SDS011;67012;53.712;10.728;2024-03-07T15:19:02;18.90;;;10.90;;
77821;SDS011;67012;53.712;10.728;2024-03-07T15:21:27;19.90;;;11.07;;
77821;SDS011;67012;53.712;10.728;2024-03-07T15:23:54;16.40;;;10.57;;
77821;SDS011;67012;53.712;10.728;2024-03-07T15:26:19;20.10;;;11.17;;
77821;SDS011;67012;53.712;10.728;2024-03-07T15:28:48;18.85;;;11.73;;
77821;SDS011;67012;53.712;10.728;2024-03-07T15:31:13;18.87;;;11.60;;
77821;SDS011;67012;53.712;10.728;2024-03-07T15:33:39;19.50;;;11.35;;
77821;SDS011;67012;53.712;10.728;2024-03-07T15:36:08;11.57;;;6.18;;
77821;SDS011;67012;53.712;10.728;2024-03-07T15:38:34;18.10;;;12.85;;
77821;SDS011;67012;53.712;10.728;2024-03-07T15:41:03;17.27;;;11.25;;
77821;SDS011;67012;53.712;10.728;2024-03-07T15:43:28;17.95;;;10.18;;
77821;SDS011;67012;53.712;10.728;2024-03-07T15:45:53;15.85;;;9.90;;
77821;SDS011;67012;53.712;10.728;2024-03-07T15:48:19;15.02;;;8.93;;
77821;SDS011;67012;53.712;10.728;2024-03-07T15:50:47;11.65;;;8.52;;
77821;SDS011;67012;53.712;10.728;2024-03-07T15:53:12;12.33;;;8.30;;
77821;SDS011;67012;53.712;10.728;2024-03-07T15:55:38;13.88;;;9.30;;
77821;SDS011;67012;53.712;10.728;2024-03-07T15:58:03;20.42;;;15.20;;
77821;SDS011;67012;53.712;10.728;2024-03-07T16:00:32;26.02;;;22.67;;
77821;SDS011;67012;53.712;10.728;2024-03-07T16:03:05;18.92;;;13.38;;
77821;SDS011;67012;53.712;10.728;2024-03-07T16:05:35;18.02;;;11.55;;
77821;SDS011;67012;53.712;10.728;2024-03-07T16:08:01;16.00;;;11.05;;
77821;SDS011;67012;53.712;10.728;2024-03-07T16:10:28;16.73;;;10.32;;
77821;SDS011;67012;53.712;10.728;2024-03-07T16:12:55;16.05;;;10.10;;
77821;SDS011;67012;53.712;10.728;2024-03-07T16:15:21;16.35;;;9.80;;
77821;SDS011;67012;53.712;10.728;2024-03-07T16:17:48;17.08;;;9.02;;
77821;SDS011;67012;53.712;10.728;2024-03-07T16:20:13;15.82;;;9.82;;
77821;SDS011;67012;53.712;10.728;2024-03-07T16:22:42;16.95;;;11.05;;
77821;SDS011;67012;53.712;10.728;2024-03-07T16:25:07;15.18;;;9.57;;
77821;SDS011;67012;53.712;10.728;2024-03-07T16:27:34;16.98;;;9.07;;
77821;SDS011;67012;53.712;10.728;2024-03-07T16:29:59;13.97;;;8.80;;
77821;SDS011;67012;53.712;10.728;2024-03-07T16:32:24;14.82;;;9.05;;
77821;SDS011;67012;53.712;10.728;2024-03-07T16:34:49;14.03;;;8.30;;
77821;SDS011;67012;53.712;10.728;2024-03-07T16:37:15;12.57;;;7.90;;
77821;SDS011;67012;53.712;10.728;2024-03-07T16:39:40;13.82;;;7.95;;
77821;SDS011;67012;53.712;10.728;2024-03-07T16:42:08;14.73;;;8.52;;
77821;SDS011;67012;53.712;10.728;2024-03-07T16:44:33;13.03;;;8.00;;
77821;SDS011;67012;53.712;10.728;2024-03-07T16:47:01;17.38;;;8.27;;
77821;SDS011;67012;53.712;10.728;2024-03-07T16:49:27;12.67;;;8.33;;
77821;SDS011;67012;53.712;10.728;2024-03-07T16:51:52;14.13;;;7.75;;
77821;SDS011;67012;53.712;10.728;2024-03-07T16:54:18;16.30;;;8.80;;
77821;SDS011;67012;53.712;10.728;2024-03-07T16:56:43;15.13;;;8.20;;
77821;SDS011;67012;53.712;10.728;2024-03-07T16:59:08;14.33;;;8.70;;
77821;SDS011;67012;53.712;10.728;2024-03-07T17:01:35;14.70;;;8.23;;
77821;SDS011;67012;53.712;10.728;2024-03-07T17:04:00;15.27;;;8.65;;
77821;SDS011;67012;53.712;10.728;2024-03-07T17:06:26;13.87;;;8.07;;
77821;SDS011;67012;53.712;10.728;2024-03-07T17:08:51;13.00;;;8.20;;
77821;SDS011;67012;53.712;10.728;2024-03-07T17:11:18;14.35;;;7.38;;
77821;SDS011;67012;53.712;10.728;2024-03-07T17:13:44;15.13;;;7.97;;
77821;SDS011;67012;53.712;10.728;2024-03-07T17:16:09;13.77;;;7.55;;
77821;SDS011;67012;53.712;10.728;2024-03-07T17:18:35;13.65;;;7.30;;
77821;SDS011;67012;53.712;10.728;2024-03-07T17:21:00;15.37;;;8.10;;
